sensor_id;sensor_type;location;lat;lon;timestamp;P1;durP1;ratioP1;P2;durP2;ratioP2
31594;SDS011;18200;48.726;8.892;2023-04-09T00:03:31;24.08;;;14.13;;
31594;SDS011;18200;48.726;8.892;2023-04-09T00:07:32;23.52;;;14.30;;
31594;SDS011;18200;48.726;8.892;2023-04-09T00:11:33;22.45;;;13.85;;
31594;SDS011;18200;48.726;8.892;2023-04-09T00:15:33;22.83;;;13.90;;
31594;SDS011;18200;48.726;8.892;2023-04-09T00:19:33;22.95;;;13.40;;
31594;SDS011;18200;48.726;8.892;2023-04-09T00:23:34;20.90;;;13.60;;
31594;SDS011;18200;48.726;8.892;2023-04-09T00:27:35;17.83;;;13.40;;
31594;SDS011;18200;48.726;8.892;2023-04-09T00:31:35;19.63;;;12.98;;
31594;SDS011;18200;48.726;8.892;2023-04-09T00:35:36;17.65;;;11.93;;
31594;SDS011;18200;48.726;8.892;2023-04-09T00:39:36;20.00;;;11.68;;
31594;SDS011;18200;48.726;8.892;2023-04-09T00:43:37;19.55;;;12.93;;
31594;SDS011;18200;48.726;8.892;2023-04-09T00:47:37;21.25;;;13.20;;
31594;SDS011;18200;48.726;8.892;2023-04-09T00:51:38;19.27;;;13.00;;
31594;SDS011;18200;48.726;8.892;2023-04-09T00:55:39;21.40;;;12.95;;
31594;SDS011;18200;48.726;8.892;2023-04-09T00:59:41;19.08;;;13.25;;
31594;SDS011;18200;48.726;8.892;2023-04-09T01:03:42;21.20;;;14.85;;
31594;SDS011;18200;48.726;8.892;2023-04-09T01:12:09;23.40;;;14.73;;
31594;SDS011;18200;48.726;8.892;2023-04-09T01:16:17;19.88;;;13.50;;
31594;SDS011;18200;48.726;8.892;2023-04-09T01:20:34;23.55;;;14.05;;
31594;SDS011;18200;48.726;8.892;2023-04-09T01:24:41;21.35;;;14.05;;
31594;SDS011;18200;48.726;8.892;2023-04-09T01:29:03;25.23;;;15.05;;
31594;SDS011;18200;48.726;8.892;2023-04-09T01:33:06;20.58;;;14.27;;
31594;SDS011;18200;48.726;8.892;2023-04-09T01:37:09;20.83;;;13.77;;
31594;SDS011;18200;48.726;8.892;2023-04-09T01:41:13;22.02;;;14.45;;
31594;SDS011;18200;48.726;8.892;2023-04-09T01:45:16;22.05;;;14.27;;
31594;SDS011;18200;48.726;8.892;2023-04-09T01:49:17;20.27;;;13.45;;
31594;SDS011;18200;48.726;8.892;2023-04-09T01:53:18;22.65;;;13.60;;
31594;SDS011;18200;48.726;8.892;2023-04-09T01:57:18;23.85;;;15.27;;
31594;SDS011;18200;48.726;8.892;2023-04-09T02:01:23;24.83;;;15.27;;
31594;SDS011;18200;48.726;8.892;2023-04-09T02:05:31;24.00;;;14.82;;
31594;SDS011;18200;48.726;8.892;2023-04-09T02:09:38;22.92;;;15.82;;
31594;SDS011;18200;48.726;8.892;2023-04-09T02:13:40;24.95;;;16.35;;
31594;SDS011;18200;48.726;8.892;2023-04-09T02:17:42;27.10;;;16.23;;
31594;SDS011;18200;48.726;8.892;2023-04-09T02:21:43;20.95;;;14.70;;
31594;SDS011;18200;48.726;8.892;2023-04-09T02:25:44;23.67;;;15.48;;
31594;SDS011;18200;48.726;8.892;2023-04-09T02:29:44;27.55;;;16.83;;
31594;SDS011;18200;48.726;8.892;2023-04-09T02:33:46;24.67;;;16.00;;
31594;SDS011;18200;48.726;8.892;2023-04-09T02:37:46;29.65;;;16.77;;
31594;SDS011;18200;48.726;8.892;2023-04-09T02:41:47;29.92;;;17.65;;
31594;SDS011;18200;48.726;8.892;2023-04-09T02:45:47;27.33;;;17.35;;
31594;SDS011;18200;48.726;8.892;2023-04-09T02:49:47;25.25;;;16.55;;
31594;SDS011;18200;48.726;8.892;2023-04-09T02:53:48;24.40;;;16.02;;
31594;SDS011;18200;48.726;8.892;2023-04-09T02:57:48;25.95;;;16.45;;
31594;SDS011;18200;48.726;8.892;2023-04-09T03:01:49;23.38;;;15.27;;
31594;SDS011;18200;48.726;8.892;2023-04-09T03:05:49;25.15;;;15.93;;
31594;SDS011;18200;48.726;8.892;2023-04-09T03:09:51;26.80;;;17.55;;
31594;SDS011;18200;48.726;8.892;2023-04-09T03:13:51;28.65;;;15.60;;
31594;SDS011;18200;48.726;8.892;2023-04-09T03:17:52;24.67;;;16.15;;
31594;SDS011;18200;48.726;8.892;2023-04-09T03:21:54;23.25;;;15.20;;
31594;SDS011;18200;48.726;8.892;2023-04-09T03:26:02;21.45;;;15.00;;
31594;SDS011;18200;48.726;8.892;2023-04-09T03:30:08;21.70;;;14.98;;
31594;SDS011;18200;48.726;8.892;2023-04-09T03:34:15;22.63;;;15.38;;
31594;SDS011;18200;48.726;8.892;2023-04-09T03:38:16;20.40;;;14.40;;
31594;SDS011;18200;48.726;8.892;2023-04-09T03:42:16;21.33;;;14.48;;
31594;SDS011;18200;48.726;8.892;2023-04-09T03:46:20;24.48;;;15.05;;
31594;SDS011;18200;48.726;8.892;2023-04-09T03:50:22;24.60;;;15.10;;
31594;SDS011;18200;48.726;8.892;2023-04-09T03:54:29;24.27;;;15.15;;
31594;SDS011;18200;48.726;8.892;2023-04-09T03:58:31;23.48;;;15.80;;
31594;SDS011;18200;48.726;8.892;2023-04-09T04:02:32;23.27;;;16.15;;
31594;SDS011;18200;48.726;8.892;2023-04-09T04:11:01;24.13;;;16.45;;
31594;SDS011;18200;48.726;8.892;2023-04-09T04:15:04;24.20;;;15.77;;
31594;SDS011;18200;48.726;8.892;2023-04-09T04:19:10;27.05;;;17.17;;
31594;SDS011;18200;48.726;8.892;2023-04-09T04:23:16;28.63;;;17.25;;
31594;SDS011;18200;48.726;8.892;2023-04-09T04:27:26;26.42;;;17.70;;
31594;SDS011;18200;48.726;8.892;2023-04-09T04:31:27;36.25;;;28.25;;
31594;SDS011;18200;48.726;8.892;2023-04-09T04:35:30;28.33;;;18.40;;
31594;SDS011;18200;48.726;8.892;2023-04-09T04:39:34;25.73;;;17.67;;
31594;SDS011;18200;48.726;8.892;2023-04-09T04:43:40;28.73;;;17.90;;
31594;SDS011;18200;48.726;8.892;2023-04-09T04:47:41;24.50;;;16.92;;
31594;SDS011;18200;48.726;8.892;2023-04-09T04:51:42;27.02;;;17.05;;
31594;SDS011;18200;48.726;8.892;2023-04-09T04:55:45;26.93;;;17.13;;
31594;SDS011;18200;48.726;8.892;2023-04-09T04:59:49;27.87;;;15.83;;
31594;SDS011;18200;48.726;8.892;2023-04-09T05:03:51;27.45;;;16.63;;
31594;SDS011;18200;48.726;8.892;2023-04-09T05:08:01;28.35;;;19.42;;
31594;SDS011;18200;48.726;8.892;2023-04-09T05:12:02;30.05;;;19.55;;
31594;SDS011;18200;48.726;8.892;2023-04-09T05:16:02;29.15;;;18.25;;
31594;SDS011;18200;48.726;8.892;2023-04-09T05:20:05;31.15;;;20.08;;
31594;SDS011;18200;48.726;8.892;2023-04-09T05:24:17;27.00;;;17.95;;
31594;SDS011;18200;48.726;8.892;2023-04-09T05:28:18;28.38;;;18.33;;
31594;SDS011;18200;48.726;8.892;2023-04-09T05:32:20;27.42;;;17.85;;
31594;SDS011;18200;48.726;8.892;2023-04-09T05:36:21;29.10;;;19.25;;
31594;SDS011;18200;48.726;8.892;2023-04-09T05:40:21;28.58;;;18.63;;
31594;SDS011;18200;48.726;8.892;2023-04-09T05:44:23;27.45;;;17.55;;
31594;SDS011;18200;48.726;8.892;2023-04-09T05:48:27;28.15;;;18.27;;
31594;SDS011;18200;48.726;8.892;2023-04-09T05:52:28;27.38;;;18.75;;
31594;SDS011;18200;48.726;8.892;2023-04-09T05:56:29;29.55;;;19.83;;
31594;SDS011;18200;48.726;8.892;2023-04-09T06:00:30;28.95;;;19.17;;
31594;SDS011;18200;48.726;8.892;2023-04-09T06:04:31;30.85;;;19.38;;
31594;SDS011;18200;48.726;8.892;2023-04-09T06:08:33;34.08;;;21.90;;
31594;SDS011;18200;48.726;8.892;2023-04-09T06:12:34;32.05;;;21.15;;
31594;SDS011;18200;48.726;8.892;2023-04-09T06:16:35;41.90;;;23.58;;
31594;SDS011;18200;48.726;8.892;2023-04-09T06:20:35;44.72;;;25.95;;
31594;SDS011;18200;48.726;8.892;2023-04-09T06:24:35;39.67;;;23.42;;
31594;SDS011;18200;48.726;8.892;2023-04-09T06:28:36;32.40;;;20.35;;
31594;SDS011;18200;48.726;8.892;2023-04-09T06:32:36;28.15;;;18.60;;
31594;SDS011;18200;48.726;8.892;2023-04-09T06:36:37;34.55;;;21.98;;
31594;SDS011;18200;48.726;8.892;2023-04-09T06:40:39;33.83;;;21.70;;
31594;SDS011;18200;48.726;8.892;2023-04-09T06:44:39;36.72;;;22.42;;
31594;SDS011;18200;48.726;8.892;2023-04-09T06:48:40;37.40;;;23.10;;
31594;SDS011;18200;48.726;8.892;2023-04-09T06:52:41;36.45;;;23.20;;
31594;SDS011;18200;48.726;8.892;2023-04-09T06:56:41;37.40;;;22.20;;
31594;SDS011;18200;48.726;8.892;2023-04-09T07:00:42;34.08;;;21.30;;
31594;SDS011;18200;48.726;8.892;2023-04-09T07:04:42;34.08;;;22.85;;
31594;SDS011;18200;48.726;8.892;2023-04-09T07:08:44;34.80;;;22.20;;
31594;SDS011;18200;48.726;8.892;2023-04-09T07:12:44;37.47;;;23.60;;
31594;SDS011;18200;48.726;8.892;2023-04-09T07:16:44;38.65;;;23.90;;
31594;SDS011;18200;48.726;8.892;2023-04-09T07:20:45;34.92;;;22.73;;
31594;SDS011;18200;48.726;8.892;2023-04-09T07:24:45;38.28;;;23.55;;
31594;SDS011;18200;48.726;8.892;2023-04-09T07:28:52;37.42;;;23.48;;
31594;SDS011;18200;48.726;8.892;2023-04-09T07:32:52;38.22;;;24.48;;
31594;SDS011;18200;48.726;8.892;2023-04-09T07:36:53;41.75;;;28.52;;
31594;SDS011;18200;48.726;8.892;2023-04-09T07:40:53;36.05;;;22.33;;
31594;SDS011;18200;48.726;8.892;2023-04-09T07:44:53;38.00;;;23.42;;
31594;SDS011;18200;48.726;8.892;2023-04-09T07:48:54;35.05;;;22.52;;
31594;SDS011;18200;48.726;8.892;2023-04-09T07:52:54;31.83;;;21.42;;
31594;SDS011;18200;48.726;8.892;2023-04-09T07:56:55;36.08;;;22.63;;
31594;SDS011;18200;48.726;8.892;2023-04-09T08:00:55;31.85;;;20.05;;
31594;SDS011;18200;48.726;8.892;2023-04-09T08:04:56;31.27;;;19.95;;
31594;SDS011;18200;48.726;8.892;2023-04-09T08:08:56;33.40;;;20.08;;
31594;SDS011;18200;48.726;8.892;2023-04-09T08:12:57;32.47;;;20.50;;
31594;SDS011;18200;48.726;8.892;2023-04-09T08:16:58;58.90;;;29.75;;
31594;SDS011;18200;48.726;8.892;2023-04-09T08:20:58;25.45;;;15.02;;
31594;SDS011;18200;48.726;8.892;2023-04-09T08:25:05;19.15;;;13.23;;
31594;SDS011;18200;48.726;8.892;2023-04-09T08:29:06;9.02;;;6.47;;
31594;SDS011;18200;48.726;8.892;2023-04-09T08:33:08;9.10;;;6.28;;
31594;SDS011;18200;48.726;8.892;2023-04-09T08:37:09;10.63;;;6.47;;
31594;SDS011;18200;48.726;8.892;2023-04-09T08:41:15;7.97;;;5.68;;
31594;SDS011;18200;48.726;8.892;2023-04-09T08:45:19;9.68;;;5.72;;
31594;SDS011;18200;48.726;8.892;2023-04-09T08:49:20;8.35;;;5.95;;
31594;SDS011;18200;48.726;8.892;2023-04-09T08:53:20;5.47;;;4.50;;
31594;SDS011;18200;48.726;8.892;2023-04-09T08:57:22;5.93;;;4.50;;
31594;SDS011;18200;48.726;8.892;2023-04-09T09:01:23;7.88;;;5.65;;
31594;SDS011;18200;48.726;8.892;2023-04-09T09:05:37;8.95;;;6.30;;
31594;SDS011;18200;48.726;8.892;2023-04-09T09:09:59;7.95;;;5.88;;
31594;SDS011;18200;48.726;8.892;2023-04-09T09:14:06;8.38;;;5.97;;
31594;SDS011;18200;48.726;8.892;2023-04-09T09:18:08;21.65;;;12.48;;
31594;SDS011;18200;48.726;8.892;2023-04-09T09:22:08;6.82;;;4.95;;
31594;SDS011;18200;48.726;8.892;2023-04-09T09:26:16;4.15;;;2.60;;
31594;SDS011;18200;48.726;8.892;2023-04-09T09:30:24;6.57;;;3.97;;
31594;SDS011;18200;48.726;8.892;2023-04-09T09:34:25;4.72;;;3.60;;
31594;SDS011;18200;48.726;8.892;2023-04-09T09:38:26;5.82;;;4.22;;
31594;SDS011;18200;48.726;8.892;2023-04-09T09:42:26;36.13;;;22.83;;
31594;SDS011;18200;48.726;8.892;2023-04-09T09:46:27;9.55;;;6.63;;
31594;SDS011;18200;48.726;8.892;2023-04-09T09:50:30;6.20;;;4.43;;
31594;SDS011;18200;48.726;8.892;2023-04-09T09:54:37;31.77;;;15.10;;
31594;SDS011;18200;48.726;8.892;2023-04-09T09:58:43;14.23;;;7.50;;
31594;SDS011;18200;48.726;8.892;2023-04-09T10:02:52;12.95;;;6.38;;
31594;SDS011;18200;48.726;8.892;2023-04-09T10:06:58;11.75;;;8.23;;
31594;SDS011;18200;48.726;8.892;2023-04-09T10:11:00;7.50;;;5.28;;
31594;SDS011;18200;48.726;8.892;2023-04-09T10:15:01;7.70;;;5.63;;
31594;SDS011;18200;48.726;8.892;2023-04-09T10:19:05;6.35;;;5.00;;
31594;SDS011;18200;48.726;8.892;2023-04-09T10:23:10;7.50;;;5.40;;
31594;SDS011;18200;48.726;8.892;2023-04-09T10:27:18;9.23;;;6.50;;
31594;SDS011;18200;48.726;8.892;2023-04-09T10:31:19;10.20;;;6.85;;
31594;SDS011;18200;48.726;8.892;2023-04-09T10:35:24;9.15;;;6.90;;
31594;SDS011;18200;48.726;8.892;2023-04-09T10:39:32;9.27;;;7.32;;
31594;SDS011;18200;48.726;8.892;2023-04-09T10:43:33;9.35;;;7.10;;
31594;SDS011;18200;48.726;8.892;2023-04-09T10:47:39;11.27;;;7.90;;
31594;SDS011;18200;48.726;8.892;2023-04-09T10:51:42;10.90;;;7.28;;
31594;SDS011;18200;48.726;8.892;2023-04-09T10:55:48;9.40;;;7.47;;
31594;SDS011;18200;48.726;8.892;2023-04-09T10:59:50;8.98;;;6.53;;
31594;SDS011;18200;48.726;8.892;2023-04-09T11:04:07;8.50;;;6.28;;
31594;SDS011;18200;48.726;8.892;2023-04-09T11:08:12;8.90;;;6.38;;
31594;SDS011;18200;48.726;8.892;2023-04-09T11:12:13;73.95;;;38.33;;
31594;SDS011;18200;48.726;8.892;2023-04-09T11:16:13;17.73;;;9.00;;
31594;SDS011;18200;48.726;8.892;2023-04-09T11:20:24;9.13;;;7.22;;
31594;SDS011;18200;48.726;8.892;2023-04-09T11:24:25;12.88;;;8.75;;
31594;SDS011;18200;48.726;8.892;2023-04-09T11:28:25;12.65;;;8.05;;
31594;SDS011;18200;48.726;8.892;2023-04-09T11:32:28;12.13;;;7.78;;
31594;SDS011;18200;48.726;8.892;2023-04-09T11:36:30;10.35;;;7.53;;
31594;SDS011;18200;48.726;8.892;2023-04-09T11:40:33;9.38;;;7.57;;
31594;SDS011;18200;48.726;8.892;2023-04-09T11:44:34;8.48;;;6.55;;
31594;SDS011;18200;48.726;8.892;2023-04-09T11:48:35;14.80;;;10.32;;
31594;SDS011;18200;48.726;8.892;2023-04-09T11:52:36;9.10;;;6.55;;
31594;SDS011;18200;48.726;8.892;2023-04-09T11:56:37;9.45;;;7.20;;
31594;SDS011;18200;48.726;8.892;2023-04-09T12:00:39;9.35;;;7.35;;
31594;SDS011;18200;48.726;8.892;2023-04-09T12:04:47;8.60;;;6.55;;
31594;SDS011;18200;48.726;8.892;2023-04-09T12:08:52;8.70;;;6.25;;
31594;SDS011;18200;48.726;8.892;2023-04-09T12:12:53;8.00;;;5.65;;
31594;SDS011;18200;48.726;8.892;2023-04-09T12:16:54;8.02;;;6.05;;
31594;SDS011;18200;48.726;8.892;2023-04-09T12:20:54;8.00;;;6.30;;
31594;SDS011;18200;48.726;8.892;2023-04-09T12:24:54;7.32;;;5.97;;
31594;SDS011;18200;48.726;8.892;2023-04-09T12:28:55;9.80;;;6.00;;
31594;SDS011;18200;48.726;8.892;2023-04-09T12:32:55;7.80;;;6.13;;
31594;SDS011;18200;48.726;8.892;2023-04-09T12:36:56;8.32;;;6.55;;
31594;SDS011;18200;48.726;8.892;2023-04-09T12:40:56;8.32;;;5.70;;
31594;SDS011;18200;48.726;8.892;2023-04-09T12:44:56;8.63;;;6.88;;
31594;SDS011;18200;48.726;8.892;2023-04-09T12:48:57;8.43;;;5.82;;
31594;SDS011;18200;48.726;8.892;2023-04-09T12:52:57;8.95;;;7.13;;
31594;SDS011;18200;48.726;8.892;2023-04-09T12:56:57;9.18;;;6.85;;
31594;SDS011;18200;48.726;8.892;2023-04-09T13:00:58;8.00;;;6.18;;
31594;SDS011;18200;48.726;8.892;2023-04-09T13:04:58;8.00;;;6.30;;
31594;SDS011;18200;48.726;8.892;2023-04-09T13:08:59;10.65;;;7.07;;
31594;SDS011;18200;48.726;8.892;2023-04-09T13:12:59;8.40;;;5.43;;
31594;SDS011;18200;48.726;8.892;2023-04-09T13:16:59;9.82;;;6.43;;
31594;SDS011;18200;48.726;8.892;2023-04-09T13:21:00;8.82;;;6.47;;
31594;SDS011;18200;48.726;8.892;2023-04-09T13:25:02;9.23;;;6.70;;
31594;SDS011;18200;48.726;8.892;2023-04-09T13:29:03;8.10;;;6.60;;
31594;SDS011;18200;48.726;8.892;2023-04-09T13:33:03;11.20;;;8.02;;
31594;SDS011;18200;48.726;8.892;2023-04-09T13:37:03;7.10;;;5.90;;
31594;SDS011;18200;48.726;8.892;2023-04-09T13:41:04;8.57;;;6.43;;
31594;SDS011;18200;48.726;8.892;2023-04-09T13:45:05;7.82;;;6.18;;
31594;SDS011;18200;48.726;8.892;2023-04-09T13:49:05;7.68;;;5.97;;
31594;SDS011;18200;48.726;8.892;2023-04-09T13:53:06;8.60;;;6.32;;
31594;SDS011;18200;48.726;8.892;2023-04-09T13:57:06;7.65;;;6.05;;
31594;SDS011;18200;48.726;8.892;2023-04-09T14:01:07;7.65;;;5.68;;
31594;SDS011;18200;48.726;8.892;2023-04-09T14:05:07;6.05;;;5.07;;
31594;SDS011;18200;48.726;8.892;2023-04-09T14:09:08;6.82;;;5.82;;
31594;SDS011;18200;48.726;8.892;2023-04-09T14:13:09;6.53;;;5.50;;
31594;SDS011;18200;48.726;8.892;2023-04-09T14:17:11;6.47;;;5.38;;
31594;SDS011;18200;48.726;8.892;2023-04-09T14:21:11;8.13;;;6.22;;
31594;SDS011;18200;48.726;8.892;2023-04-09T14:25:11;7.55;;;5.47;;
31594;SDS011;18200;48.726;8.892;2023-04-09T14:29:12;6.35;;;5.10;;
31594;SDS011;18200;48.726;8.892;2023-04-09T14:33:12;7.25;;;5.63;;
31594;SDS011;18200;48.726;8.892;2023-04-09T14:37:13;7.30;;;5.50;;
31594;SDS011;18200;48.726;8.892;2023-04-09T14:41:13;6.40;;;4.65;;
31594;SDS011;18200;48.726;8.892;2023-04-09T14:45:13;10.63;;;5.18;;
31594;SDS011;18200;48.726;8.892;2023-04-09T14:49:14;6.93;;;5.20;;
31594;SDS011;18200;48.726;8.892;2023-04-09T14:53:15;6.47;;;4.60;;
31594;SDS011;18200;48.726;8.892;2023-04-09T14:57:15;6.97;;;5.10;;
31594;SDS011;18200;48.726;8.892;2023-04-09T15:01:15;7.70;;;5.35;;
31594;SDS011;18200;48.726;8.892;2023-04-09T15:05:16;6.78;;;4.60;;
31594;SDS011;18200;48.726;8.892;2023-04-09T15:09:16;5.18;;;3.90;;
31594;SDS011;18200;48.726;8.892;2023-04-09T15:13:16;5.45;;;4.40;;
31594;SDS011;18200;48.726;8.892;2023-04-09T15:17:17;6.38;;;5.00;;
31594;SDS011;18200;48.726;8.892;2023-04-09T15:21:17;6.25;;;5.13;;
31594;SDS011;18200;48.726;8.892;2023-04-09T15:25:18;6.15;;;5.25;;
31594;SDS011;18200;48.726;8.892;2023-04-09T15:29:18;8.68;;;4.97;;
31594;SDS011;18200;48.726;8.892;2023-04-09T15:33:18;7.18;;;5.50;;
31594;SDS011;18200;48.726;8.892;2023-04-09T15:37:19;6.85;;;5.28;;
31594;SDS011;18200;48.726;8.892;2023-04-09T15:41:19;9.07;;;5.82;;
31594;SDS011;18200;48.726;8.892;2023-04-09T15:45:22;5.93;;;4.90;;
31594;SDS011;18200;48.726;8.892;2023-04-09T15:49:23;9.30;;;5.80;;
31594;SDS011;18200;48.726;8.892;2023-04-09T15:53:23;7.93;;;5.93;;
31594;SDS011;18200;48.726;8.892;2023-04-09T15:57:26;9.18;;;5.60;;
31594;SDS011;18200;48.726;8.892;2023-04-09T16:01:26;8.07;;;5.30;;
31594;SDS011;18200;48.726;8.892;2023-04-09T16:05:27;7.38;;;5.60;;
31594;SDS011;18200;48.726;8.892;2023-04-09T16:09:27;7.78;;;5.50;;
31594;SDS011;18200;48.726;8.892;2023-04-09T16:13:27;7.43;;;4.78;;
31594;SDS011;18200;48.726;8.892;2023-04-09T16:17:28;7.85;;;5.90;;
31594;SDS011;18200;48.726;8.892;2023-04-09T16:21:28;7.80;;;5.78;;
31594;SDS011;18200;48.726;8.892;2023-04-09T16:25:28;5.32;;;4.55;;
31594;SDS011;18200;48.726;8.892;2023-04-09T16:29:29;7.53;;;5.57;;
31594;SDS011;18200;48.726;8.892;2023-04-09T16:33:29;7.43;;;5.25;;
31594;SDS011;18200;48.726;8.892;2023-04-09T16:37:30;7.25;;;5.32;;
31594;SDS011;18200;48.726;8.892;2023-04-09T16:41:30;10.75;;;6.78;;
31594;SDS011;18200;48.726;8.892;2023-04-09T16:45:31;7.70;;;5.47;;
31594;SDS011;18200;48.726;8.892;2023-04-09T16:49:31;7.90;;;5.93;;
31594;SDS011;18200;48.726;8.892;2023-04-09T16:53:31;8.60;;;5.90;;
31594;SDS011;18200;48.726;8.892;2023-04-09T16:57:32;8.15;;;5.80;;
31594;SDS011;18200;48.726;8.892;2023-04-09T17:01:33;9.30;;;5.97;;
31594;SDS011;18200;48.726;8.892;2023-04-09T17:05:33;7.28;;;5.53;;
31594;SDS011;18200;48.726;8.892;2023-04-09T17:09:34;7.47;;;5.80;;
31594;SDS011;18200;48.726;8.892;2023-04-09T17:13:34;8.88;;;6.18;;
31594;SDS011;18200;48.726;8.892;2023-04-09T17:17:35;7.65;;;5.20;;
31594;SDS011;18200;48.726;8.892;2023-04-09T17:21:36;7.13;;;5.60;;
31594;SDS011;18200;48.726;8.892;2023-04-09T17:25:37;6.90;;;5.32;;
31594;SDS011;18200;48.726;8.892;2023-04-09T17:29:37;7.97;;;6.03;;
31594;SDS011;18200;48.726;8.892;2023-04-09T17:33:37;9.07;;;6.07;;
31594;SDS011;18200;48.726;8.892;2023-04-09T17:37:38;7.43;;;5.38;;
31594;SDS011;18200;48.726;8.892;2023-04-09T17:41:38;9.00;;;6.60;;
31594;SDS011;18200;48.726;8.892;2023-04-09T17:45:39;6.75;;;5.47;;
31594;SDS011;18200;48.726;8.892;2023-04-09T17:49:40;9.35;;;6.40;;
31594;SDS011;18200;48.726;8.892;2023-04-09T17:53:40;9.38;;;6.13;;
31594;SDS011;18200;48.726;8.892;2023-04-09T17:57:41;8.63;;;6.38;;
31594;SDS011;18200;48.726;8.892;2023-04-09T18:01:41;11.57;;;6.32;;
31594;SDS011;18200;48.726;8.892;2023-04-09T18:05:42;8.68;;;6.30;;
31594;SDS011;18200;48.726;8.892;2023-04-09T18:09:42;7.47;;;6.00;;
31594;SDS011;18200;48.726;8.892;2023-04-09T18:13:43;8.45;;;5.85;;
31594;SDS011;18200;48.726;8.892;2023-04-09T18:17:43;8.80;;;6.10;;
31594;SDS011;18200;48.726;8.892;2023-04-09T18:21:44;8.05;;;5.90;;
31594;SDS011;18200;48.726;8.892;2023-04-09T18:25:44;9.63;;;6.05;;
31594;SDS011;18200;48.726;8.892;2023-04-09T18:29:45;12.52;;;8.52;;
31594;SDS011;18200;48.726;8.892;2023-04-09T18:33:45;15.80;;;10.13;;
31594;SDS011;18200;48.726;8.892;2023-04-09T18:37:45;11.45;;;7.47;;
31594;SDS011;18200;48.726;8.892;2023-04-09T18:41:46;10.45;;;6.78;;
31594;SDS011;18200;48.726;8.892;2023-04-09T18:45:47;10.35;;;7.13;;
31594;SDS011;18200;48.726;8.892;2023-04-09T18:49:48;11.20;;;8.07;;
31594;SDS011;18200;48.726;8.892;2023-04-09T18:53:48;17.08;;;11.38;;
31594;SDS011;18200;48.726;8.892;2023-04-09T18:57:51;22.08;;;11.52;;
31594;SDS011;18200;48.726;8.892;2023-04-09T19:01:52;17.17;;;10.57;;
31594;SDS011;18200;48.726;8.892;2023-04-09T19:05:52;15.07;;;10.82;;
31594;SDS011;18200;48.726;8.892;2023-04-09T19:09:52;13.25;;;8.10;;
31594;SDS011;18200;48.726;8.892;2023-04-09T19:13:53;11.20;;;8.10;;
31594;SDS011;18200;48.726;8.892;2023-04-09T19:17:54;11.85;;;8.68;;
31594;SDS011;18200;48.726;8.892;2023-04-09T19:21:55;12.68;;;8.25;;
31594;SDS011;18200;48.726;8.892;2023-04-09T19:25:55;15.43;;;8.90;;
31594;SDS011;18200;48.726;8.892;2023-04-09T19:29:56;16.30;;;9.75;;
31594;SDS011;18200;48.726;8.892;2023-04-09T19:33:58;16.33;;;9.18;;
31594;SDS011;18200;48.726;8.892;2023-04-09T19:37:59;20.05;;;11.30;;
31594;SDS011;18200;48.726;8.892;2023-04-09T19:41:59;25.23;;;13.32;;
31594;SDS011;18200;48.726;8.892;2023-04-09T19:46:03;14.38;;;9.30;;
31594;SDS011;18200;48.726;8.892;2023-04-09T19:50:05;28.33;;;14.43;;
31594;SDS011;18200;48.726;8.892;2023-04-09T19:54:06;20.88;;;11.55;;
31594;SDS011;18200;48.726;8.892;2023-04-09T19:58:08;10.02;;;7.15;;
31594;SDS011;18200;48.726;8.892;2023-04-09T20:02:09;10.85;;;7.00;;
31594;SDS011;18200;48.726;8.892;2023-04-09T20:06:09;11.23;;;7.10;;
31594;SDS011;18200;48.726;8.892;2023-04-09T20:10:10;13.00;;;8.48;;
31594;SDS011;18200;48.726;8.892;2023-04-09T20:14:10;11.18;;;8.07;;
31594;SDS011;18200;48.726;8.892;2023-04-09T20:18:11;14.13;;;8.48;;
31594;SDS011;18200;48.726;8.892;2023-04-09T20:22:11;18.90;;;12.77;;
31594;SDS011;18200;48.726;8.892;2023-04-09T20:26:12;14.98;;;10.15;;
31594;SDS011;18200;48.726;8.892;2023-04-09T20:30:13;16.88;;;10.23;;
31594;SDS011;18200;48.726;8.892;2023-04-09T20:34:14;14.70;;;9.65;;
31594;SDS011;18200;48.726;8.892;2023-04-09T20:38:15;13.75;;;7.50;;
31594;SDS011;18200;48.726;8.892;2023-04-09T20:42:19;13.32;;;8.50;;
31594;SDS011;18200;48.726;8.892;2023-04-09T20:46:19;15.95;;;9.13;;
31594;SDS011;18200;48.726;8.892;2023-04-09T20:50:20;12.60;;;8.57;;
31594;SDS011;18200;48.726;8.892;2023-04-09T20:54:20;14.43;;;9.05;;
31594;SDS011;18200;48.726;8.892;2023-04-09T20:58:22;19.25;;;11.32;;
31594;SDS011;18200;48.726;8.892;2023-04-09T21:02:22;14.95;;;9.77;;
31594;SDS011;18200;48.726;8.892;2023-04-09T21:06:23;11.95;;;8.32;;
31594;SDS011;18200;48.726;8.892;2023-04-09T21:10:23;11.93;;;8.43;;
31594;SDS011;18200;48.726;8.892;2023-04-09T21:14:24;12.38;;;8.80;;
31594;SDS011;18200;48.726;8.892;2023-04-09T21:18:24;18.08;;;9.77;;
31594;SDS011;18200;48.726;8.892;2023-04-09T21:22:25;15.43;;;11.13;;
31594;SDS011;18200;48.726;8.892;2023-04-09T21:26:25;15.13;;;10.00;;
31594;SDS011;18200;48.726;8.892;2023-04-09T21:30:26;17.85;;;10.10;;
31594;SDS011;18200;48.726;8.892;2023-04-09T21:34:27;18.42;;;9.77;;
31594;SDS011;18200;48.726;8.892;2023-04-09T21:38:27;13.40;;;8.70;;
31594;SDS011;18200;48.726;8.892;2023-04-09T21:42:27;15.48;;;9.35;;
31594;SDS011;18200;48.726;8.892;2023-04-09T21:46:30;16.30;;;9.70;;
31594;SDS011;18200;48.726;8.892;2023-04-09T21:50:30;13.88;;;9.52;;
31594;SDS011;18200;48.726;8.892;2023-04-09T21:54:31;15.60;;;9.88;;
31594;SDS011;18200;48.726;8.892;2023-04-09T21:58:32;20.58;;;9.73;;
31594;SDS011;18200;48.726;8.892;2023-04-09T22:02:32;28.95;;;15.13;;
31594;SDS011;18200;48.726;8.892;2023-04-09T22:06:33;26.05;;;12.77;;
31594;SDS011;18200;48.726;8.892;2023-04-09T22:10:33;19.30;;;11.82;;
31594;SDS011;18200;48.726;8.892;2023-04-09T22:14:33;19.23;;;11.75;;
31594;SDS011;18200;48.726;8.892;2023-04-09T22:18:34;20.70;;;11.85;;
31594;SDS011;18200;48.726;8.892;2023-04-09T22:22:34;22.95;;;13.75;;
31594;SDS011;18200;48.726;8.892;2023-04-09T22:26:35;22.02;;;13.98;;
31594;SDS011;18200;48.726;8.892;2023-04-09T22:30:35;27.85;;;13.15;;
31594;SDS011;18200;48.726;8.892;2023-04-09T22:34:35;21.05;;;12.02;;
31594;SDS011;18200;48.726;8.892;2023-04-09T22:38:36;21.08;;;11.93;;
31594;SDS011;18200;48.726;8.892;2023-04-09T22:42:36;21.42;;;12.85;;
31594;SDS011;18200;48.726;8.892;2023-04-09T22:46:39;19.63;;;11.07;;
31594;SDS011;18200;48.726;8.892;2023-04-09T22:50:39;22.65;;;12.35;;
31594;SDS011;18200;48.726;8.892;2023-04-09T22:54:40;19.63;;;10.95;;
31594;SDS011;18200;48.726;8.892;2023-04-09T22:58:42;26.95;;;15.27;;
31594;SDS011;18200;48.726;8.892;2023-04-09T23:02:42;27.35;;;17.27;;
31594;SDS011;18200;48.726;8.892;2023-04-09T23:06:42;29.98;;;16.20;;
31594;SDS011;18200;48.726;8.892;2023-04-09T23:10:43;25.65;;;15.27;;
31594;SDS011;18200;48.726;8.892;2023-04-09T23:14:44;28.42;;;16.10;;
31594;SDS011;18200;48.726;8.892;2023-04-09T23:18:44;26.50;;;15.00;;
31594;SDS011;18200;48.726;8.892;2023-04-09T23:22:45;24.15;;;14.20;;
31594;SDS011;18200;48.726;8.892;2023-04-09T23:26:46;23.83;;;13.43;;
31594;SDS011;18200;48.726;8.892;2023-04-09T23:30:47;21.13;;;11.98;;
31594;SDS011;18200;48.726;8.892;2023-04-09T23:34:47;23.15;;;12.90;;
31594;SDS011;18200;48.726;8.892;2023-04-09T23:38:47;21.92;;;12.40;;
31594;SDS011;18200;48.726;8.892;2023-04-09T23:42:48;20.00;;;12.02;;
31594;SDS011;18200;48.726;8.892;2023-04-09T23:46:49;24.33;;;12.23;;
31594;SDS011;18200;48.726;8.892;2023-04-09T23:50:49;19.70;;;11.95;;
31594;SDS011;18200;48.726;8.892;2023-04-09T23:54:50;22.65;;;12.05;;
31594;SDS011;18200;48.726;8.892;2023-04-09T23:58:50;24.17;;;13.43;;
